Map

Track Data

SID SEASON NUMBER BASIN SUBBASIN NAME ISO_TIME NATURE LAT LON WMO_WIND WMO_PRES WMO_AGENCY TRACK_TYPE DIST2LAND LANDFALL IFLAG USA_AGENCY USA_ATCF_ID USA_LAT USA_LON USA_RECORD USA_STATUS USA_WIND USA_PRES USA_SSHS USA_R34_NE USA_R34_SE USA_R34_SW USA_R34_NW USA_R50_NE USA_R50_SE USA_R50_SW USA_R50_NW USA_R64_NE USA_R64_SE USA_R64_SW USA_R64_NW USA_POCI USA_ROCI USA_RMW USA_EYE TOKYO_LAT TOKYO_LON TOKYO_GRADE TOKYO_WIND TOKYO_PRES TOKYO_R50_DIR TOKYO_R50_LONG TOKYO_R50_SHORT TOKYO_R30_DIR TOKYO_R30_LONG TOKYO_R30_SHORT TOKYO_LAND CMA_LAT CMA_LON CMA_CAT CMA_WIND CMA_PRES HKO_LAT HKO_LON HKO_CAT HKO_WIND HKO_PRES NEWDELHI_LAT NEWDELHI_LON NEWDELHI_GRADE NEWDELHI_WIND NEWDELHI_PRES NEWDELHI_CI NEWDELHI_DP NEWDELHI_POCI REUNION_LAT REUNION_LON REUNION_TYPE REUNION_WIND REUNION_PRES REUNION_TNUM REUNION_CI REUNION_RMW REUNION_R34_NE REUNION_R34_SE REUNION_R34_SW REUNION_R34_NW REUNION_R50_NE REUNION_R50_SE REUNION_R50_SW REUNION_R50_NW REUNION_R64_NE REUNION_R64_SE REUNION_R64_SW REUNION_R64_NW BOM_LAT BOM_LON BOM_TYPE BOM_WIND BOM_PRES BOM_TNUM BOM_CI BOM_RMW BOM_R34_NE BOM_R34_SE BOM_R34_SW BOM_R34_NW BOM_R50_NE BOM_R50_SE BOM_R50_SW BOM_R50_NW BOM_R64_NE BOM_R64_SE BOM_R64_SW BOM_R64_NW BOM_ROCI BOM_POCI BOM_EYE BOM_POS_METHOD BOM_PRES_METHOD NADI_LAT NADI_LON NADI_CAT NADI_WIND NADI_PRES WELLINGTON_LAT WELLINGTON_LON WELLINGTON_WIND WELLINGTON_PRES DS824_LAT DS824_LON DS824_STAGE DS824_WIND DS824_PRES TD9636_LAT TD9636_LON TD9636_STAGE TD9636_WIND TD9636_PRES TD9635_LAT TD9635_LON TD9635_WIND TD9635_PRES TD9635_ROCI NEUMANN_LAT NEUMANN_LON NEUMANN_CLASS NEUMANN_WIND NEUMANN_PRES MLC_LAT MLC_LON MLC_CLASS MLC_WIND MLC_PRES USA_GUST BOM_GUST BOM_GUST_PER REUNION_GUST REUNION_GUST_PER USA_SEAHGT USA_SEARAD_NE USA_SEARAD_SE USA_SEARAD_SW USA_SEARAD_NW STORM_SPEED STORM_DIR
1923219N25131 1923 48 WP MM NOT_NAMED 1923-08-06 22:00:00 NR 24.9000 131.400 main 684 648 __________O___ -1 24.9000 131.400 4 16 308
1923219N25131 1923 48 WP MM NOT_NAMED 1923-08-07 00:00:00 NR 25.2199 130.953 main 648 592 __________P___ -1 25.2199 130.953 4 16 307
1923219N25131 1923 48 WP MM NOT_NAMED 1923-08-07 03:00:00 NR 25.6850 130.267 main 592 557 __________P___ -1 25.6850 130.267 4 16 305
1923219N25131 1923 48 WP MM NOT_NAMED 1923-08-07 06:00:00 NR 26.1151 129.546 main 559 532 __________P___ -1 26.1151 129.546 4 16 301
1923219N25131 1923 48 WP MM NOT_NAMED 1923-08-07 09:00:00 NR 26.4905 128.773 main 535 531 __________P___ -1 26.4905 128.773 4 16 297
1923219N25131 1923 48 WP MM NOT_NAMED 1923-08-07 10:00:00 NR 26.6000 128.500 main 535 529 __________O___ -1 26.6000 128.500 4 16 292
1923219N25131 1923 48 WP MM NOT_NAMED 1923-08-07 12:00:00 NR 26.7926 127.932 main 539 537 __________P___ -1 26.7926 127.932 4 16 288
1923219N25131 1923 48 WP MM NOT_NAMED 1923-08-07 15:00:00 NR 27.0187 127.042 main 546 459 __________P___ -1 27.0187 127.042 4 16 284
1923219N25131 1923 48 WP MM NOT_NAMED 1923-08-07 18:00:00 NR 27.1772 126.143 main 459 380 __________P___ -1 27.1772 126.143 4 16 279
1923219N25131 1923 48 WP MM NOT_NAMED 1923-08-07 21:00:00 NR 27.2777 125.275 main 380 352 __________P___ -1 27.2777 125.275 4 15 277
1923219N25131 1923 48 WP MM NOT_NAMED 1923-08-07 22:00:00 NR 27.3000 125.000 main 352 306 __________O___ -1 27.3000 125.000 4 14 275
1923219N25131 1923 48 WP MM NOT_NAMED 1923-08-08 00:00:00 NR 27.3383 124.487 main 306 238 __________P___ -1 27.3383 124.487 4 13 273
1923219N25131 1923 48 WP MM NOT_NAMED 1923-08-08 03:00:00 NR 27.3530 123.762 main 238 184 __________P___ -1 27.3530 123.762 4 13 270
1923219N25131 1923 48 WP MM NOT_NAMED 1923-08-08 06:00:00 NR 27.3358 123.078 main 184 136 __________P___ -1 27.3358 123.078 4 12 268
1923219N25131 1923 48 WP MM NOT_NAMED 1923-08-08 09:00:00 NR 27.3080 122.418 main 136 125 __________P___ -1 27.3080 122.418 4 12 267
1923219N25131 1923 48 WP MM NOT_NAMED 1923-08-08 10:00:00 NR 27.3000 122.200 main 125 101 __________O___ -1 27.3000 122.200 4 12 268
1923219N25131 1923 48 WP MM NOT_NAMED 1923-08-08 12:00:00 NR 27.2894 121.766 main 101 45 __________P___ -1 27.2894 121.766 4 12 269
1923219N25131 1923 48 WP MM NOT_NAMED 1923-08-08 15:00:00 NR 27.2848 121.115 main 45 0 __________P___ -1 27.2848 121.115 4 12 270
1923219N25131 1923 48 WP MM NOT_NAMED 1923-08-08 18:00:00 NR 27.2891 120.466 main 0 0 __________P___ -1 27.2891 120.466 4 12 271
1923219N25131 1923 48 WP MM NOT_NAMED 1923-08-08 21:00:00 NR 27.2973 119.816 main 0 0 __________P___ -1 27.2973 119.816 4 12 271
1923219N25131 1923 48 WP MM NOT_NAMED 1923-08-08 22:00:00 NR 27.3000 119.600 main 0 __________O___ -1 27.3000 119.600 7 12 271

Digital Typhoon Data and Search

About IBTrACS Database

This database is a web-friendly format of International Best Track Archive for Climate Stewardship (IBTrACS), a global best track data archive curated by NOAA dating back to 1842.

Updated: 2021-12-03